Terminal Aerodrome Forecast
Issued by NWS Cleveland, OH

Home | Current Version | Previous Version | Text Only | Print | Product List | Glossary Off
Versions: 1 2 3 4 5 6 7 8 9 10 11 12 13 14 15

000
FTUS41 KCLE 091000 AAA
TAFCAK
TAF AMD
KCAK 091041Z 0911/1006 20005KT P6SM SCT070
     FM091500 29010KT P6SM VCSH BKN035
     FM091900 30010KT P6SM BKN050
     FM100000 33006KT P6SM SCT050=

USA.gov is the U.S. government's official web portal to all federal, state and local government web resources and services.